New Smyrna Beach, Florida
Current Conditions -  °F | °C
As of 9:47 PM on Monday 20 Oct 2014 (Local Time) from KEVB Reporting Station
Few Clouds Few Clouds  
Wind Chill: 73°   Ceiling: Unl
Heat Index: 73°   Visibility: 10mi
Dew Point: 68°   Wind: 7mph
Humidity: 83%   Direction: 90°E
Pressure: 29.99"   Gusts: NA
Location:  29.03°N, 80.92°W
Report Text: KEVB 210147Z 09006KT 10SM FEW025 23/20 A2999 RMK LAST
Loading
Personal Weather Stations






























Interactive Weather Map
Tropical Storm Tracking
New forecast layout! Learn more

10-Day Weather Forecast

Advertisements
Track Severe Weather on mobile